Time;durP1;ratioP1;P1;durP2;ratioP2;P2;SDS_P1;SDS_P2;PMS_P1;PMS_P2;Temp;Humidity;BMP_temperature;BMP_pressure;BME280_temperature;BME280_humidity;BME280_pressure;Samples;Min_cycle;Max_cycle;Signal;HPM_P1;HPM_P2
2022/05/05 00:02:10;;;;;;;11.40;10.50;;;;;;;;;;5078463;28;24419;-45
2022/05/05 00:04:35;;;;;;;12.10;11.20;;;;;;;;;;5081655;28;24423;-45
2022/05/05 00:07:03;;;;;;;13.35;12.05;;;;;;;;;;5082916;28;24488;-45
2022/05/05 00:09:29;;;;;;;13.20;12.10;;;;;;;;;;5078448;28;24517;-45
2022/05/05 00:14:39;;;;;;;11.60;10.70;;;;;;;;;;5084180;28;24497;-46
2022/05/05 00:17:06;;;;;;;11.07;10.18;;;;;;;;;;5071541;28;24425;-45
2022/05/05 00:19:35;;;;;;;11.77;10.77;;;;;;;;;;5086262;28;24813;-45
2022/05/05 00:22:00;;;;;;;10.60;9.60;;;;;;;;;;5079974;28;24437;-45
2022/05/05 00:24:25;;;;;;;11.48;10.43;;;;;;;;;;5087108;28;25209;-45
2022/05/05 00:26:51;;;;;;;10.25;9.45;;;;;;;;;;5085705;28;24956;-45
2022/05/05 00:29:16;;;;;;;10.90;10.00;;;;;;;;;;5087905;28;24712;-45
2022/05/05 00:31:42;;;;;;;11.17;10.17;;;;;;;;;;5083896;28;24423;-46
2022/05/05 00:34:07;;;;;;;11.13;10.32;;;;;;;;;;5080975;28;24858;-46
2022/05/05 00:36:32;;;;;;;10.68;9.77;;;;;;;;;;5083803;28;24448;-45
2022/05/05 00:38:57;;;;;;;10.20;9.40;;;;;;;;;;5086076;28;24473;-45
2022/05/05 00:41:23;;;;;;;10.40;9.70;;;;;;;;;;5085059;28;24424;-47
2022/05/05 00:43:48;;;;;;;10.73;9.77;;;;;;;;;;5087500;28;24461;-45
2022/05/05 00:46:13;;;;;;;10.77;9.88;;;;;;;;;;5087008;28;24495;-46
2022/05/05 00:48:40;;;;;;;11.15;10.25;;;;;;;;;;5086019;28;24418;-45
2022/05/05 00:51:06;;;;;;;10.30;9.40;;;;;;;;;;5084620;28;24472;-44
2022/05/05 00:53:31;;;;;;;9.90;9.10;;;;;;;;;;5083646;28;24468;-45
2022/05/05 00:56:01;;;;;;;10.10;9.30;;;;;;;;;;5086666;28;24491;-46
2022/05/05 00:58:27;;;;;;;10.60;9.70;;;;;;;;;;5085582;28;24414;-45
2022/05/05 01:00:52;;;;;;;10.90;9.90;;;;;;;;;;5086404;28;24987;-45
2022/05/05 01:03:18;;;;;;;10.82;9.93;;;;;;;;;;5084410;28;24960;-45
2022/05/05 01:05:43;;;;;;;11.15;10.15;;;;;;;;;;5085723;28;24430;-45
2022/05/05 01:08:09;;;;;;;11.02;10.00;;;;;;;;;;5085469;28;24518;-46
2022/05/05 01:10:34;;;;;;;10.50;9.60;;;;;;;;;;5087012;28;24509;-45
2022/05/05 01:13:01;;;;;;;10.27;9.48;;;;;;;;;;5083845;28;24426;-46
2022/05/05 01:15:26;;;;;;;9.77;9.07;;;;;;;;;;5085298;28;24780;-45
2022/05/05 01:17:51;;;;;;;10.30;9.40;;;;;;;;;;5084908;28;24426;-45
2022/05/05 01:20:17;;;;;;;10.55;9.65;;;;;;;;;;5086225;28;24984;-45
2022/05/05 01:22:42;;;;;;;10.63;9.75;;;;;;;;;;5084184;28;24482;-45
2022/05/05 01:30:35;;;;;;;10.45;9.65;;;;;;;;;;5082623;28;24489;-45
2022/05/05 01:33:08;;;;;;;10.40;9.60;;;;;;;;;;5082944;28;24418;-45
2022/05/05 01:35:34;;;;;;;10.98;9.98;;;;;;;;;;5083336;28;24453;-45
2022/05/05 01:37:59;;;;;;;10.57;9.77;;;;;;;;;;5075735;28;24429;-45
2022/05/05 01:40:24;;;;;;;10.90;10.10;;;;;;;;;;5084333;28;24429;-45
2022/05/05 01:42:51;;;;;;;10.60;9.70;;;;;;;;;;5083675;28;24509;-45
2022/05/05 01:45:16;;;;;;;10.80;9.90;;;;;;;;;;5081003;28;24422;-45
2022/05/05 01:47:41;;;;;;;11.50;10.27;;;;;;;;;;5084062;28;24491;-46
2022/05/05 01:50:06;;;;;;;11.23;10.23;;;;;;;;;;5082745;28;24429;-46
2022/05/05 01:52:31;;;;;;;11.40;10.40;;;;;;;;;;5084430;28;24422;-45
2022/05/05 01:54:56;;;;;;;10.90;10.00;;;;;;;;;;5075083;28;24453;-46
2022/05/05 01:57:21;;;;;;;11.35;10.35;;;;;;;;;;5084883;28;24712;-45
2022/05/05 01:59:47;;;;;;;11.67;10.77;;;;;;;;;;5083573;28;24480;-45
2022/05/05 02:02:12;;;;;;;10.73;9.82;;;;;;;;;;5087347;28;25005;-45
2022/05/05 02:04:37;;;;;;;11.30;10.40;;;;;;;;;;5080168;28;24421;-45
2022/05/05 02:07:03;;;;;;;11.65;10.65;;;;;;;;;;5084711;28;24483;-45
2022/05/05 02:09:28;;;;;;;11.30;10.40;;;;;;;;;;5084768;28;24413;-45
2022/05/05 02:11:53;;;;;;;11.83;10.83;;;;;;;;;;5083038;28;25324;-45
2022/05/05 02:14:20;;;;;;;11.85;10.85;;;;;;;;;;5083653;28;24963;-45
2022/05/05 02:16:45;;;;;;;11.45;10.35;;;;;;;;;;5083584;28;24529;-45
2022/05/05 02:19:10;;;;;;;11.10;10.20;;;;;;;;;;5084558;28;24501;-44
2022/05/05 02:21:35;;;;;;;11.85;10.85;;;;;;;;;;5081585;28;24426;-45
2022/05/05 02:24:00;;;;;;;11.35;10.43;;;;;;;;;;5082150;28;24943;-45
2022/05/05 02:26:26;;;;;;;11.60;10.43;;;;;;;;;;5072524;28;24506;-45
2022/05/05 02:28:51;;;;;;;11.27;10.32;;;;;;;;;;5080325;28;24450;-46
2022/05/05 02:31:16;;;;;;;11.07;10.07;;;;;;;;;;5082276;28;24468;-45
2022/05/05 02:33:41;;;;;;;11.60;10.60;;;;;;;;;;5077773;28;24996;-45
2022/05/05 02:38:50;;;;;;;10.70;9.90;;;;;;;;;;5079131;28;24990;-45
2022/05/05 02:41:15;;;;;;;11.70;10.80;;;;;;;;;;5083600;28;24426;-45
2022/05/05 02:43:41;;;;;;;12.33;11.33;;;;;;;;;;5080256;28;24509;-45
2022/05/05 02:46:06;;;;;;;11.97;10.97;;;;;;;;;;5083488;28;24484;-45
2022/05/05 02:48:31;;;;;;;12.03;10.93;;;;;;;;;;5082728;28;25044;-45
2022/05/05 02:50:56;;;;;;;11.48;10.48;;;;;;;;;;5075203;28;24433;-45
2022/05/05 02:56:06;;;;;;;12.02;10.75;;;;;;;;;;5083524;28;24394;-45
2022/05/05 02:58:31;;;;;;;11.10;10.20;;;;;;;;;;5083222;28;25266;-46
2022/05/05 03:00:56;;;;;;;10.70;9.80;;;;;;;;;;5082930;28;24421;-46
2022/05/05 03:03:21;;;;;;;11.30;10.40;;;;;;;;;;5085011;28;25043;-45
2022/05/05 03:05:46;;;;;;;11.18;10.18;;;;;;;;;;5083186;28;24487;-46
2022/05/05 03:08:12;;;;;;;11.20;10.30;;;;;;;;;;5080626;28;24432;-45
2022/05/05 03:10:37;;;;;;;10.80;10.00;;;;;;;;;;5085578;28;24410;-46
2022/05/05 03:13:02;;;;;;;11.13;10.13;;;;;;;;;;5087557;28;24970;-45
2022/05/05 03:15:27;;;;;;;10.50;9.70;;;;;;;;;;5083266;28;24437;-45
2022/05/05 03:17:52;;;;;;;10.68;9.80;;;;;;;;;;5085729;28;24457;-46
2022/05/05 03:20:17;;;;;;;10.65;9.85;;;;;;;;;;5084032;28;24434;-46
2022/05/05 03:22:43;;;;;;;10.98;9.93;;;;;;;;;;5079021;28;24418;-45
2022/05/05 03:25:08;;;;;;;11.48;10.50;;;;;;;;;;5077526;28;24623;-45
2022/05/05 03:27:35;;;;;;;11.30;10.30;;;;;;;;;;5087062;28;24483;-46
2022/05/05 03:30:00;;;;;;;11.00;10.10;;;;;;;;;;5086135;28;24465;-46
2022/05/05 03:32:26;;;;;;;11.00;10.10;;;;;;;;;;5086581;28;24445;-46
2022/05/05 03:34:51;;;;;;;11.48;10.45;;;;;;;;;;5084240;28;24437;-46
2022/05/05 03:37:16;;;;;;;11.23;10.13;;;;;;;;;;5086506;28;25027;-45
2022/05/05 03:39:43;;;;;;;11.70;10.70;;;;;;;;;;5080123;28;21334;-45
2022/05/05 03:42:08;;;;;;;12.10;11.10;;;;;;;;;;5084391;28;24437;-45
2022/05/05 03:44:33;;;;;;;11.63;10.63;;;;;;;;;;5087015;28;24457;-45
2022/05/05 03:46:59;;;;;;;13.00;11.90;;;;;;;;;;5077862;28;24983;-45
2022/05/05 03:49:24;;;;;;;12.00;11.00;;;;;;;;;;5080976;28;24491;-45
2022/05/05 03:51:49;;;;;;;11.43;10.43;;;;;;;;;;5085416;28;25001;-45
2022/05/05 03:54:14;;;;;;;11.80;10.70;;;;;;;;;;5086241;28;24506;-45
2022/05/05 03:56:40;;;;;;;11.60;10.60;;;;;;;;;;5083462;28;24773;-45
2022/05/05 03:59:05;;;;;;;12.23;11.13;;;;;;;;;;5068632;28;24472;-45
2022/05/05 04:01:30;;;;;;;11.50;10.60;;;;;;;;;;5075948;28;24507;-45
2022/05/05 04:03:55;;;;;;;12.32;11.23;;;;;;;;;;5082199;28;24430;-45
2022/05/05 04:06:20;;;;;;;12.27;11.27;;;;;;;;;;5088973;28;24491;-45
2022/05/05 04:08:45;;;;;;;12.30;11.23;;;;;;;;;;5084898;28;24497;-45
2022/05/05 04:11:11;;;;;;;12.70;11.60;;;;;;;;;;5088309;28;24422;-46
2022/05/05 04:13:36;;;;;;;12.60;11.50;;;;;;;;;;5087139;28;24433;-45
2022/05/05 04:16:02;;;;;;;12.80;11.50;;;;;;;;;;5081969;28;24487;-45
2022/05/05 04:18:27;;;;;;;13.50;12.10;;;;;;;;;;5087194;28;24474;-45
2022/05/05 04:20:53;;;;;;;12.80;11.70;;;;;;;;;;5088351;28;24477;-45
2022/05/05 04:23:18;;;;;;;12.57;11.48;;;;;;;;;;5085011;28;24785;-50
2022/05/05 04:25:44;;;;;;;12.57;11.47;;;;;;;;;;5083219;28;24972;-46
2022/05/05 04:28:10;;;;;;;12.93;11.82;;;;;;;;;;5082251;28;24517;-46
2022/05/05 04:30:35;;;;;;;12.98;11.88;;;;;;;;;;5083527;28;25104;-46
2022/05/05 04:33:01;;;;;;;13.15;11.85;;;;;;;;;;5086362;28;24434;-46
2022/05/05 04:35:26;;;;;;;12.57;11.57;;;;;;;;;;5089166;28;24439;-45
2022/05/05 04:37:51;;;;;;;14.00;12.60;;;;;;;;;;5084086;28;24482;-45
2022/05/05 04:40:16;;;;;;;13.13;11.82;;;;;;;;;;5076879;28;24517;-45
2022/05/05 04:42:41;;;;;;;12.23;11.23;;;;;;;;;;5085046;28;25007;-45
2022/05/05 04:45:07;;;;;;;12.20;11.10;;;;;;;;;;5084482;28;25066;-45
2022/05/05 04:47:32;;;;;;;13.03;11.93;;;;;;;;;;5082515;28;24509;-45
2022/05/05 04:49:58;;;;;;;12.60;11.60;;;;;;;;;;5082680;28;24442;-45
2022/05/05 04:52:24;;;;;;;13.20;12.10;;;;;;;;;;5082621;28;24432;-45
2022/05/05 04:54:49;;;;;;;12.65;11.50;;;;;;;;;;5082687;28;24433;-45
2022/05/05 04:57:14;;;;;;;13.27;12.07;;;;;;;;;;5079430;28;24525;-45
2022/05/05 04:59:39;;;;;;;13.00;11.90;;;;;;;;;;5080722;28;24414;-45
2022/05/05 05:02:04;;;;;;;13.93;12.52;;;;;;;;;;5075626;28;24422;-46
2022/05/05 05:04:30;;;;;;;12.27;11.37;;;;;;;;;;5074106;28;24509;-45
2022/05/05 05:06:55;;;;;;;12.27;11.27;;;;;;;;;;5079328;28;24453;-45
2022/05/05 05:09:20;;;;;;;11.93;10.90;;;;;;;;;;5081247;28;24476;-45
2022/05/05 05:11:45;;;;;;;12.93;11.80;;;;;;;;;;5082743;28;24784;-45
2022/05/05 05:14:10;;;;;;;11.48;10.57;;;;;;;;;;5078869;28;24425;-45
2022/05/05 05:16:36;;;;;;;12.55;11.35;;;;;;;;;;5083987;28;24501;-45
2022/05/05 05:19:02;;;;;;;11.80;10.80;;;;;;;;;;5081171;28;25464;-45
2022/05/05 05:21:27;;;;;;;12.50;11.50;;;;;;;;;;5085623;28;25075;-46
2022/05/05 05:23:52;;;;;;;13.15;11.98;;;;;;;;;;5085827;28;24502;-45
2022/05/05 05:26:17;;;;;;;12.80;11.77;;;;;;;;;;5085698;28;24532;-45
2022/05/05 05:28:42;;;;;;;13.07;11.90;;;;;;;;;;5082691;28;24513;-46
2022/05/05 05:31:08;;;;;;;12.43;11.23;;;;;;;;;;5085471;28;24426;-46
2022/05/05 05:33:33;;;;;;;12.47;11.47;;;;;;;;;;5087274;28;24410;-45
2022/05/05 05:35:59;;;;;;;12.80;11.70;;;;;;;;;;5087692;28;24494;-46
2022/05/05 05:38:24;;;;;;;11.50;10.60;;;;;;;;;;5079225;28;24813;-45
2022/05/05 05:40:49;;;;;;;12.27;11.27;;;;;;;;;;5068145;28;24965;-45
2022/05/05 05:43:14;;;;;;;12.33;11.03;;;;;;;;;;5072763;28;24438;-47
2022/05/05 05:45:40;;;;;;;12.23;11.20;;;;;;;;;;5085674;28;24461;-45
2022/05/05 05:48:06;;;;;;;12.23;11.15;;;;;;;;;;5086586;28;25024;-46
2022/05/05 05:50:31;;;;;;;11.88;10.88;;;;;;;;;;5086417;28;24838;-45
2022/05/05 05:52:57;;;;;;;12.30;11.30;;;;;;;;;;5086339;28;24998;-46
2022/05/05 05:55:22;;;;;;;12.75;11.55;;;;;;;;;;5086796;28;24414;-45
2022/05/05 05:57:47;;;;;;;11.93;10.93;;;;;;;;;;5086966;28;24489;-46
2022/05/05 06:00:12;;;;;;;16.50;15.10;;;;;;;;;;5086313;28;24414;-46
2022/05/05 06:05:21;;;;;;;20.27;18.30;;;;;;;;;;5071535;28;24427;-46
2022/05/05 06:07:46;;;;;;;21.57;19.67;;;;;;;;;;5066624;28;24399;-46
2022/05/05 06:10:12;;;;;;;19.92;18.13;;;;;;;;;;5065999;28;24419;-46
2022/05/05 06:12:37;;;;;;;23.50;21.30;;;;;;;;;;5067594;28;24618;-46
2022/05/05 06:15:02;;;;;;;22.55;20.45;;;;;;;;;;5075330;28;24414;-45
2022/05/05 06:17:27;;;;;;;22.17;20.10;;;;;;;;;;5078183;28;24505;-45
2022/05/05 06:19:52;;;;;;;22.40;20.33;;;;;;;;;;5071447;28;24481;-45
2022/05/05 06:22:18;;;;;;;23.55;21.35;;;;;;;;;;5086697;28;24459;-45
2022/05/05 06:24:43;;;;;;;24.10;21.90;;;;;;;;;;5079893;28;25003;-45
2022/05/05 06:27:08;;;;;;;22.70;20.63;;;;;;;;;;5075354;28;24426;-45
2022/05/05 06:29:33;;;;;;;23.58;21.38;;;;;;;;;;5083876;28;25050;-45
2022/05/05 06:31:58;;;;;;;22.65;20.55;;;;;;;;;;5086591;28;24410;-45
2022/05/05 06:34:23;;;;;;;22.50;20.40;;;;;;;;;;5086408;28;24481;-45
2022/05/05 06:36:48;;;;;;;19.60;17.80;;;;;;;;;;5086708;28;24978;-45
2022/05/05 06:39:14;;;;;;;24.63;22.33;;;;;;;;;;5083711;28;24472;-45
2022/05/05 06:41:39;;;;;;;23.43;21.40;;;;;;;;;;5086917;28;24437;-45
2022/05/05 06:44:04;;;;;;;23.73;21.53;;;;;;;;;;5071633;28;24433;-45
2022/05/05 06:46:30;;;;;;;25.42;23.02;;;;;;;;;;5076042;28;24990;-44
2022/05/05 06:48:55;;;;;;;22.50;20.42;;;;;;;;;;5080371;28;24425;-45
2022/05/05 06:51:20;;;;;;;23.17;21.07;;;;;;;;;;5085134;28;24397;-45
2022/05/05 06:53:46;;;;;;;20.08;18.20;;;;;;;;;;5084681;28;24406;-45
2022/05/05 06:56:11;;;;;;;19.63;17.93;;;;;;;;;;5086480;28;24417;-44
2022/05/05 06:58:36;;;;;;;21.33;19.33;;;;;;;;;;5086519;28;24484;-45
2022/05/05 07:03:45;;;;;;;22.77;20.67;;;;;;;;;;5081357;28;24517;-45
2022/05/05 07:06:10;;;;;;;23.47;21.37;;;;;;;;;;5086843;28;24406;-45
2022/05/05 07:11:20;;;;;;;23.00;20.60;;;;;;;;;;5086439;28;24473;-44
2022/05/05 07:13:45;;;;;;;20.93;19.03;;;;;;;;;;5085071;28;24414;-45
2022/05/05 07:16:10;;;;;;;21.83;19.93;;;;;;;;;;5086121;28;24441;-44
2022/05/05 07:18:36;;;;;;;20.57;18.57;;;;;;;;;;5086801;28;24477;-44
2022/05/05 07:21:01;;;;;;;21.27;19.27;;;;;;;;;;5085692;28;24430;-45
2022/05/05 07:23:26;;;;;;;20.20;18.10;;;;;;;;;;5086826;28;24821;-44
2022/05/05 07:25:51;;;;;;;19.70;17.90;;;;;;;;;;5084758;28;24517;-44
2022/05/05 07:28:16;;;;;;;16.88;15.43;;;;;;;;;;5085931;28;25047;-44
2022/05/05 07:30:41;;;;;;;17.97;16.37;;;;;;;;;;5074318;28;24445;-45
2022/05/05 07:33:07;;;;;;;16.43;15.03;;;;;;;;;;5086054;28;24806;-44
2022/05/05 07:35:32;;;;;;;22.00;20.00;;;;;;;;;;5086255;28;24402;-44
2022/05/05 07:37:58;;;;;;;17.83;16.33;;;;;;;;;;5086277;28;24431;-44
2022/05/05 07:40:23;;;;;;;18.40;16.80;;;;;;;;;;5077588;28;25027;-45
2022/05/05 07:42:48;;;;;;;18.30;16.65;;;;;;;;;;5080075;28;24410;-44
2022/05/05 07:45:13;;;;;;;17.30;15.80;;;;;;;;;;5065790;28;24403;-45
2022/05/05 07:47:38;;;;;;;20.23;18.35;;;;;;;;;;5067525;28;24549;-44
2022/05/05 07:50:04;;;;;;;14.93;13.55;;;;;;;;;;5070291;28;24378;-44
2022/05/05 07:52:29;;;;;;;18.38;16.60;;;;;;;;;;5078199;28;24411;-45
2022/05/05 07:54:55;;;;;;;16.50;15.00;;;;;;;;;;5089587;28;24404;-45
2022/05/05 07:57:20;;;;;;;17.33;15.73;;;;;;;;;;5089906;28;24390;-45
2022/05/05 07:59:46;;;;;;;15.65;14.25;;;;;;;;;;5087199;28;24394;-45
2022/05/05 08:02:14;;;;;;;17.10;15.70;;;;;;;;;;5076036;28;24446;-44
2022/05/05 08:04:39;;;;;;;16.27;14.88;;;;;;;;;;5088649;28;24429;-44
2022/05/05 08:07:04;;;;;;;15.38;13.98;;;;;;;;;;5089150;28;25027;-44
2022/05/05 08:09:29;;;;;;;18.05;16.45;;;;;;;;;;5089333;28;24395;-45
2022/05/05 08:11:54;;;;;;;19.87;18.07;;;;;;;;;;5076303;28;24952;-44
2022/05/05 08:14:20;;;;;;;19.93;18.23;;;;;;;;;;5084044;28;24414;-44
2022/05/05 08:16:45;;;;;;;16.20;14.90;;;;;;;;;;5089504;28;24397;-44
2022/05/05 08:19:10;;;;;;;14.55;13.25;;;;;;;;;;5088617;28;24418;-44
2022/05/05 08:21:35;;;;;;;17.23;15.68;;;;;;;;;;5082373;28;24982;-44
2022/05/05 08:29:28;;;;;;;20.50;18.60;;;;;;;;;;5080798;28;24488;-45
2022/05/05 08:31:53;;;;;;;16.35;14.90;;;;;;;;;;5066458;28;24415;-45
2022/05/05 08:34:19;;;;;;;19.35;17.55;;;;;;;;;;5072757;28;24418;-45
2022/05/05 08:36:44;;;;;;;18.27;16.67;;;;;;;;;;5085859;28;24454;-45
2022/05/05 08:39:09;;;;;;;15.60;14.20;;;;;;;;;;5088393;28;24430;-45
2022/05/05 08:41:35;;;;;;;15.50;14.20;;;;;;;;;;5084786;28;24422;-45
2022/05/05 08:44:00;;;;;;;16.48;15.07;;;;;;;;;;5068208;28;24391;-45
2022/05/05 08:46:27;;;;;;;15.90;14.50;;;;;;;;;;5087051;28;25035;-45
2022/05/05 08:48:57;;;;;;;14.30;12.95;;;;;;;;;;5088591;28;24882;-45
2022/05/05 08:51:23;;;;;;;13.60;12.50;;;;;;;;;;5088484;28;24941;-45
2022/05/05 08:53:52;;;;;;;13.50;12.30;;;;;;;;;;5085679;28;24402;-45
2022/05/05 08:56:17;;;;;;;13.27;12.25;;;;;;;;;;5088616;28;24917;-45
2022/05/05 08:58:43;;;;;;;15.10;13.70;;;;;;;;;;5088219;28;24398;-45
2022/05/05 09:01:08;;;;;;;12.23;11.13;;;;;;;;;;5087987;28;24413;-45
2022/05/05 09:03:33;;;;;;;12.20;11.05;;;;;;;;;;5086341;28;24506;-45
2022/05/05 09:06:00;;;;;;;12.40;11.40;;;;;;;;;;5087839;28;24537;-45
2022/05/05 09:08:26;;;;;;;11.05;10.15;;;;;;;;;;5087978;28;24390;-46
2022/05/05 09:10:52;;;;;;;10.93;9.98;;;;;;;;;;5088148;28;24481;-46
2022/05/05 09:13:21;;;;;;;11.50;10.60;;;;;;;;;;5087809;28;24502;-45
2022/05/05 09:15:46;;;;;;;11.20;10.20;;;;;;;;;;5086348;28;24807;-45
2022/05/05 09:18:16;;;;;;;13.57;12.30;;;;;;;;;;5087781;28;24981;-45
2022/05/05 09:20:42;;;;;;;14.15;12.85;;;;;;;;;;5088086;28;24409;-44
2022/05/05 09:23:07;;;;;;;11.32;10.32;;;;;;;;;;5087937;28;24477;-45
2022/05/05 09:25:45;;;;;;;14.20;12.90;;;;;;;;;;5085801;28;25275;-45
2022/05/05 09:28:23;;;;;;;12.20;11.20;;;;;;;;;;5087830;28;24479;-45
2022/05/05 09:30:49;;;;;;;11.00;10.00;;;;;;;;;;5087595;28;24445;-45
2022/05/05 09:33:33;;;;;;;11.40;10.30;;;;;;;;;;5087230;28;24444;-46
2022/05/05 09:35:59;;;;;;;13.95;12.77;;;;;;;;;;5086030;28;24532;-45
2022/05/05 09:38:24;;;;;;;11.30;10.30;;;;;;;;;;5087279;28;24489;-44
2022/05/05 09:41:03;;;;;;;9.65;8.80;;;;;;;;;;5079324;28;24549;-45
2022/05/05 09:43:28;;;;;;;12.32;11.23;;;;;;;;;;5065565;28;24387;-45
2022/05/05 09:45:55;;;;;;;12.83;11.80;;;;;;;;;;5070219;28;24587;-45
2022/05/05 09:48:20;;;;;;;14.52;13.27;;;;;;;;;;5087853;28;24409;-45
2022/05/05 09:50:45;;;;;;;11.95;10.95;;;;;;;;;;5087420;28;24398;-45
2022/05/05 09:58:39;;;;;;;10.30;9.40;;;;;;;;;;5086390;28;24489;-45
2022/05/05 10:01:13;;;;;;;9.50;8.80;;;;;;;;;;5087563;28;24481;-45
2022/05/05 10:04:01;;;;;;;10.20;9.25;;;;;;;;;;5087137;28;24981;-45
2022/05/05 10:06:30;;;;;;;11.18;10.13;;;;;;;;;;5086692;28;24522;-45
2022/05/05 10:08:57;;;;;;;12.55;11.25;;;;;;;;;;5086060;28;24986;-45
2022/05/05 10:11:22;;;;;;;11.20;10.18;;;;;;;;;;5085700;28;24959;-45
2022/05/05 10:13:51;;;;;;;11.40;10.40;;;;;;;;;;5087194;28;24486;-46
2022/05/05 10:16:18;;;;;;;8.48;7.68;;;;;;;;;;5086558;28;24563;-45
2022/05/05 10:18:43;;;;;;;10.70;9.80;;;;;;;;;;5086236;28;24421;-45
2022/05/05 10:21:09;;;;;;;8.50;7.80;;;;;;;;;;5086345;28;24494;-45
2022/05/05 10:23:41;;;;;;;7.50;6.90;;;;;;;;;;5087047;28;24386;-46
2022/05/05 10:26:07;;;;;;;7.65;7.05;;;;;;;;;;5084933;28;24493;-46
2022/05/05 10:28:47;;;;;;;10.65;9.80;;;;;;;;;;5085188;28;24416;-46
2022/05/05 10:31:13;;;;;;;8.90;8.20;;;;;;;;;;5085569;28;25338;-45
2022/05/05 10:33:56;;;;;;;8.23;7.53;;;;;;;;;;5086245;28;24505;-46
2022/05/05 10:36:25;;;;;;;10.07;9.27;;;;;;;;;;5065177;28;24434;-46
2022/05/05 10:38:50;;;;;;;10.18;9.38;;;;;;;;;;5068518;28;24425;-45
2022/05/05 10:41:37;;;;;;;8.73;8.02;;;;;;;;;;5083473;28;24627;-45
2022/05/05 10:44:23;;;;;;;8.23;7.57;;;;;;;;;;5081064;28;24490;-44
2022/05/05 10:46:51;;;;;;;8.77;7.97;;;;;;;;;;5066483;28;24493;-45
2022/05/05 10:49:37;;;;;;;10.35;9.48;;;;;;;;;;5065758;28;24459;-45
2022/05/05 10:52:08;;;;;;;8.50;7.80;;;;;;;;;;5068047;28;24774;-45
2022/05/05 10:54:33;;;;;;;9.70;8.70;;;;;;;;;;5070862;28;24422;-45
2022/05/05 10:57:18;;;;;;;9.77;8.87;;;;;;;;;;5063778;28;24406;-44
2022/05/05 11:00:02;;;;;;;8.70;7.90;;;;;;;;;;5077581;28;24422;-45
2022/05/05 11:02:27;;;;;;;9.40;8.60;;;;;;;;;;5075631;28;24493;-45
2022/05/05 11:05:12;;;;;;;9.40;8.70;;;;;;;;;;5078706;28;24475;-44
2022/05/05 11:07:37;;;;;;;7.97;7.38;;;;;;;;;;5086510;28;25013;-45
2022/05/05 11:10:04;;;;;;;8.40;7.60;;;;;;;;;;5085385;28;24452;-44
2022/05/05 11:12:31;;;;;;;7.50;6.80;;;;;;;;;;5083910;28;24430;-45
2022/05/05 11:23:42;;;;;;;6.85;6.35;;;;;;;;;;5090143;28;24464;-47
2022/05/05 11:26:07;;;;;;;6.60;6.10;;;;;;;;;;5089678;28;24433;-44
2022/05/05 11:28:33;;;;;;;7.32;6.75;;;;;;;;;;5090430;28;24722;-44
2022/05/05 11:30:58;;;;;;;6.53;5.93;;;;;;;;;;5089343;28;24414;-45
2022/05/05 11:33:23;;;;;;;8.20;7.50;;;;;;;;;;5089103;28;24463;-45
2022/05/05 11:35:56;;;;;;;6.87;6.37;;;;;;;;;;5088272;28;24414;-46
2022/05/05 11:38:21;;;;;;;7.88;7.18;;;;;;;;;;5079784;28;25039;-45
2022/05/05 11:40:46;;;;;;;8.50;7.70;;;;;;;;;;5069872;28;24521;-45
2022/05/05 11:45:55;;;;;;;8.00;7.40;;;;;;;;;;5070212;28;24560;-44
2022/05/05 11:48:20;;;;;;;8.40;7.70;;;;;;;;;;5069974;28;24501;-46
2022/05/05 11:50:46;;;;;;;7.68;7.07;;;;;;;;;;5069127;28;24462;-44
2022/05/05 11:53:17;;;;;;;7.50;6.90;;;;;;;;;;5069148;28;24511;-45
2022/05/05 11:55:44;;;;;;;6.20;5.70;;;;;;;;;;5085011;28;24429;-45
2022/05/05 12:01:36;;;;;;;7.50;6.90;;;;;;;;;;5090047;28;24428;-52
2022/05/05 12:01:54;;;;;;;7.35;6.75;;;;;;;;;;5089706;28;24425;-45
2022/05/05 12:04:01;;;;;;;7.63;7.03;;;;;;;;;;5085384;28;24402;-45
2022/05/05 12:06:27;;;;;;;7.20;6.60;;;;;;;;;;5076740;28;24433;-45
2022/05/05 12:08:52;;;;;;;6.50;6.00;;;;;;;;;;5069501;28;24935;-45
2022/05/05 12:11:18;;;;;;;7.40;6.80;;;;;;;;;;5069360;28;24407;-45
2022/05/05 12:13:43;;;;;;;7.40;6.70;;;;;;;;;;5069317;28;24439;-45
2022/05/05 12:16:10;;;;;;;6.67;6.17;;;;;;;;;;5079960;28;24429;-45
2022/05/05 12:18:48;;;;;;;6.25;5.75;;;;;;;;;;5089413;28;24386;-45
2022/05/05 12:21:18;;;;;;;8.55;7.82;;;;;;;;;;5089302;28;24490;-54
2022/05/05 12:23:44;;;;;;;7.70;7.00;;;;;;;;;;5089130;28;24415;-46
2022/05/05 12:26:09;;;;;;;7.45;6.85;;;;;;;;;;5088086;28;24417;-46
2022/05/05 12:28:48;;;;;;;7.63;6.93;;;;;;;;;;5088231;28;24448;-46
2022/05/05 12:31:23;;;;;;;7.22;6.63;;;;;;;;;;5089239;28;24552;-46
2022/05/05 12:33:49;;;;;;;7.63;7.03;;;;;;;;;;5087299;28;24437;-46
2022/05/05 12:36:14;;;;;;;7.80;7.20;;;;;;;;;;5088418;28;24473;-46
2022/05/05 12:38:39;;;;;;;7.33;6.73;;;;;;;;;;5070918;28;24406;-46
2022/05/05 12:41:05;;;;;;;7.25;6.55;;;;;;;;;;5068782;28;24395;-46
2022/05/05 12:43:31;;;;;;;7.60;7.00;;;;;;;;;;5068424;28;24395;-46
2022/05/05 12:46:00;;;;;;;7.10;6.50;;;;;;;;;;5085002;28;24987;-46
2022/05/05 12:48:27;;;;;;;7.97;7.17;;;;;;;;;;5076028;28;24411;-46
2022/05/05 12:50:53;;;;;;;8.70;7.73;;;;;;;;;;5068071;28;24452;-46
2022/05/05 13:01:40;;;;;;;6.70;6.10;;;;;;;;;;5088601;28;24808;-45
2022/05/05 13:04:07;;;;;;;6.93;6.10;;;;;;;;;;5080367;28;24426;-45
2022/05/05 13:06:34;;;;;;;7.22;6.63;;;;;;;;;;5078838;28;24574;-45
2022/05/05 13:09:00;;;;;;;6.50;5.90;;;;;;;;;;5079024;28;25077;-46
2022/05/05 13:11:25;;;;;;;7.10;6.50;;;;;;;;;;5064944;28;24435;-46
2022/05/05 13:13:51;;;;;;;7.30;6.60;;;;;;;;;;5073104;28;25364;-46
2022/05/05 13:16:16;;;;;;;7.37;6.77;;;;;;;;;;5085136;28;24993;-46
2022/05/05 13:18:41;;;;;;;7.00;6.30;;;;;;;;;;5079257;28;24429;-46
2022/05/05 13:21:07;;;;;;;8.40;7.50;;;;;;;;;;5084944;28;24756;-46
2022/05/05 13:23:32;;;;;;;8.02;7.22;;;;;;;;;;5086583;28;24390;-45
2022/05/05 13:25:57;;;;;;;7.17;6.57;;;;;;;;;;5086998;28;24449;-46
2022/05/05 13:28:23;;;;;;;10.15;7.50;;;;;;;;;;5082078;28;24426;-46
2022/05/05 13:30:48;;;;;;;7.55;6.85;;;;;;;;;;5085190;28;24433;-46
2022/05/05 13:33:13;;;;;;;8.33;7.50;;;;;;;;;;5088032;28;24393;-46
2022/05/05 13:35:39;;;;;;;7.30;6.65;;;;;;;;;;5085707;28;24477;-46
2022/05/05 13:38:04;;;;;;;7.40;6.80;;;;;;;;;;5087007;28;24441;-46
2022/05/05 13:40:29;;;;;;;8.13;7.33;;;;;;;;;;5087421;28;24403;-46
2022/05/05 13:42:55;;;;;;;7.70;7.00;;;;;;;;;;5087398;28;24414;-46
2022/05/05 13:45:20;;;;;;;7.60;7.00;;;;;;;;;;5087007;28;24470;-47
2022/05/05 13:47:46;;;;;;;8.20;7.40;;;;;;;;;;5086936;28;24429;-46
2022/05/05 13:50:11;;;;;;;8.40;7.60;;;;;;;;;;5084724;28;24836;-47
2022/05/05 13:52:37;;;;;;;7.70;7.10;;;;;;;;;;5080054;28;24521;-46
2022/05/05 13:55:03;;;;;;;8.43;7.63;;;;;;;;;;5085096;28;24985;-46
2022/05/05 13:57:28;;;;;;;7.20;6.50;;;;;;;;;;5085962;28;24986;-46
2022/05/05 13:59:53;;;;;;;8.27;7.47;;;;;;;;;;5086912;28;24410;-46
2022/05/05 14:02:19;;;;;;;8.10;7.40;;;;;;;;;;5086781;28;24785;-46
2022/05/05 14:04:44;;;;;;;7.77;7.17;;;;;;;;;;5082124;28;24676;-46
2022/05/05 14:07:09;;;;;;;9.20;8.30;;;;;;;;;;5087499;28;24505;-46
2022/05/05 14:12:18;;;;;;;6.70;6.10;;;;;;;;;;5077462;28;24421;-45
2022/05/05 14:14:44;;;;;;;9.30;8.40;;;;;;;;;;5079869;28;25011;-45
2022/05/05 14:17:10;;;;;;;9.97;9.17;;;;;;;;;;5084250;28;24463;-44
2022/05/05 14:19:35;;;;;;;8.52;7.72;;;;;;;;;;5086057;28;24433;-46
2022/05/05 14:22:03;;;;;;;8.40;7.10;;;;;;;;;;5081800;28;24410;-44
2022/05/05 14:24:31;;;;;;;10.20;9.30;;;;;;;;;;5067661;28;24952;-46
2022/05/05 14:26:56;;;;;;;8.00;7.30;;;;;;;;;;5080356;28;25178;-46
2022/05/05 14:29:22;;;;;;;8.60;7.90;;;;;;;;;;5085665;28;24491;-44
2022/05/05 14:31:47;;;;;;;8.60;7.90;;;;;;;;;;5086924;28;24421;-46
2022/05/05 14:34:15;;;;;;;9.17;8.47;;;;;;;;;;5079424;28;24471;-46
2022/05/05 14:36:40;;;;;;;9.10;8.30;;;;;;;;;;5081953;28;24472;-47
2022/05/05 14:39:05;;;;;;;9.60;8.80;;;;;;;;;;5086977;28;24959;-45
2022/05/05 14:41:31;;;;;;;10.13;9.23;;;;;;;;;;5086445;28;24413;-45
2022/05/05 14:43:56;;;;;;;10.70;9.70;;;;;;;;;;5086961;28;24494;-46
2022/05/05 14:46:22;;;;;;;8.43;7.73;;;;;;;;;;5085086;28;24496;-46
2022/05/05 14:48:47;;;;;;;9.00;8.30;;;;;;;;;;5086639;28;24473;-47
2022/05/05 14:51:12;;;;;;;10.13;9.23;;;;;;;;;;5081649;28;24848;-46
2022/05/05 14:53:37;;;;;;;12.17;9.80;;;;;;;;;;5086539;28;24433;-46
2022/05/05 14:56:03;;;;;;;9.88;8.88;;;;;;;;;;5087259;28;24955;-46
2022/05/05 14:58:28;;;;;;;8.80;8.10;;;;;;;;;;5090555;28;24413;-46
2022/05/05 15:00:53;;;;;;;8.40;7.70;;;;;;;;;;5090459;28;24451;-46
2022/05/05 15:03:18;;;;;;;8.60;7.80;;;;;;;;;;5090244;28;24405;-46
2022/05/05 15:05:44;;;;;;;8.97;8.17;;;;;;;;;;5089956;28;24509;-46
2022/05/05 15:08:09;;;;;;;9.57;8.77;;;;;;;;;;5089576;28;24442;-46
2022/05/05 15:10:34;;;;;;;9.37;8.57;;;;;;;;;;5082731;28;25019;-47
2022/05/05 15:13:01;;;;;;;9.53;8.53;;;;;;;;;;5084944;28;24507;-46
2022/05/05 15:15:33;;;;;;;9.18;8.10;;;;;;;;;;5086418;28;24774;-47
2022/05/05 15:17:59;;;;;;;10.00;9.10;;;;;;;;;;5076701;28;24602;-46